Enter the Airport ICAO Code

Search by Airport or City

Current Weather

LEMG | Málaga Airport

Málaga, Andalusia, Spain

Last Update 18 Minutes Ago

Sky with Few Clouds

Temperature of 18 ºC

Light Winds from Variable Directions

Temperature

18 ºC

Dew Point Temperature

11 ºC

Relative Humidity

63.77 %

Wind Direction

Variable

Wind Velocity

2 km/h (01 kt)

Gusts

None

Visibility

Greater than 10 Kilometers

Sea Level Pressure

1020 hPa (Hectopascals)

Layers of Clouds

5% to 30% of Sky Covered from 305 mts (1000 ft) Above Ground Level.

METAR LEMG 202130Z VRB01KT 9999 FEW010 18/11 Q1020 NOSIG

Weather Forecast

LEMG | Málaga Airport

Málaga, Andalusia, Spain

Forecast valid for the next 20 Hours

From now on it is expected:

Light Winds from Variable Directions

In 1 to 3 hours it is expected the begining of:

Light to Moderate Winds from West

Maximum Temperature

31 ºC in 16 Hours

Minimum Temperature

16 ºC in 8 Hours

TAF LEMG 201700Z 2018/2118 14008KT 9999 FEW030 TX31/2114Z TN16/2106Z BECMG 2019/2021 VRB02KT BECMG 2023/2101 29006KT